CheckWX is a tool to help pilots better visualize weather data.  It is not intended as a substitute for an official pre-flight weather briefing.

23:11:48 UTC

KBPK TAF
Baxter County Airport
Mountain Home, Arkansas, USA
KBPK 051721Z 0518/0618 17008KT P6SM VCSH SCT100 OVC120 FM060300 14007KT 5SM -SHRA BR OVC050 FM061300 33006KT 3SM BR OVC012

Dec-5@
18:00 UTC

Dec-5 @ 18:00 UTC

Dec-6@
03:00 UTC

Dec-6 @ 03:00 UTC

KBPK 051721Z 0518/0618 17008KT P6SM VCSH SCT100 OVC120
Wind
  • 170° at 8 KTS
Cloud Levels
  • Scattered at 10,000' AGL
  • Overcast at 12,000' AGL

Dec-6@
03:00 UTC

Dec-6 @ 03:00 UTC

Dec-6@
13:00 UTC

Dec-6 @ 13:00 UTC

FM060300 14007KT 5SM -SHRA BR OVC050

From

From Standard forecast or significant change

Wind
  • 140° at 7 KTS
Conditions
Light Rain, Mist
Cloud Levels
  • Overcast at 5,000' AGL

Dec-6@
13:00 UTC

Dec-6 @ 13:00 UTC

Dec-6@
18:00 UTC

Dec-6 @ 18:00 UTC

FM061300 33006KT 3SM BR OVC012

From

From Standard forecast or significant change

Wind
  • 330° at 6 KTS
Conditions
Mist
Cloud Levels
  • Overcast at 1,200' AGL